Douradina, Brazil
Current Conditions -  °F | °C
As of 12:00 AM on Monday 26 Jan 2015 (Local Time) from SBMG Reporting Station
Thunderstorm Thunderstorm  
Wind Chill: 68°   Ceiling: 6000
Heat Index: 68°   Visibility: 6mi
Dew Point: 66°   Wind: 20mph
Humidity: 94%   Direction: 120°ESE
Pressure: 29.97"   Gusts: 31mph
Location:  23.38°S, 53.29°W
Report Text: SBMG 260200Z 12017G27KT 9999 -TSRA SCT005 FEW050CB BKN060 20/19 Q1015
Loading
Personal Weather Stations






























Interactive Weather Map New forecast layout! Learn more

10-Day Weather Forecast

Advertisements
Track Severe Weather on mobile